sensor_id;sensor_type;location;lat;lon;timestamp;temperature;humidity
12841;DHT22;6487;48.626;12.486;2023-09-19T00:00:48;16.90;99.90
12841;DHT22;6487;48.626;12.486;2023-09-19T00:03:19;16.80;99.90
12841;DHT22;6487;48.626;12.486;2023-09-19T00:05:50;16.90;99.90
12841;DHT22;6487;48.626;12.486;2023-09-19T00:08:18;16.90;99.90
12841;DHT22;6487;48.626;12.486;2023-09-19T00:10:51;16.80;99.90
12841;DHT22;6487;48.626;12.486;2023-09-19T00:13:23;16.80;99.90
12841;DHT22;6487;48.626;12.486;2023-09-19T00:15:55;16.80;99.90
12841;DHT22;6487;48.626;12.486;2023-09-19T00:18:25;16.80;99.90
12841;DHT22;6487;48.626;12.486;2023-09-19T00:20:59;16.80;99.90
12841;DHT22;6487;48.626;12.486;2023-09-19T00:23:27;16.80;99.90
12841;DHT22;6487;48.626;12.486;2023-09-19T00:26:00;16.70;99.90
12841;DHT22;6487;48.626;12.486;2023-09-19T00:28:28;16.80;99.90
12841;DHT22;6487;48.626;12.486;2023-09-19T00:30:58;16.80;99.90
12841;DHT22;6487;48.626;12.486;2023-09-19T00:33:32;16.80;99.90
12841;DHT22;6487;48.626;12.486;2023-09-19T00:36:01;16.80;99.90
12841;DHT22;6487;48.626;12.486;2023-09-19T00:38:32;16.80;99.90
12841;DHT22;6487;48.626;12.486;2023-09-19T00:41:02;16.70;99.90
12841;DHT22;6487;48.626;12.486;2023-09-19T00:43:34;16.70;99.90
12841;DHT22;6487;48.626;12.486;2023-09-19T00:46:02;16.70;99.90
12841;DHT22;6487;48.626;12.486;2023-09-19T00:48:38;16.60;99.90
12841;DHT22;6487;48.626;12.486;2023-09-19T00:51:11;16.60;99.90
12841;DHT22;6487;48.626;12.486;2023-09-19T00:53:41;16.60;99.90
12841;DHT22;6487;48.626;12.486;2023-09-19T00:56:15;16.60;99.90
12841;DHT22;6487;48.626;12.486;2023-09-19T00:58:45;16.60;99.90
12841;DHT22;6487;48.626;12.486;2023-09-19T01:01:17;16.60;99.90
12841;DHT22;6487;48.626;12.486;2023-09-19T01:03:46;16.70;99.90
12841;DHT22;6487;48.626;12.486;2023-09-19T01:06:15;16.70;99.90
12841;DHT22;6487;48.626;12.486;2023-09-19T01:08:44;16.60;99.90
12841;DHT22;6487;48.626;12.486;2023-09-19T01:11:23;16.70;99.90
12841;DHT22;6487;48.626;12.486;2023-09-19T01:14:06;16.70;99.90
12841;DHT22;6487;48.626;12.486;2023-09-19T01:16:50;16.70;99.90
12841;DHT22;6487;48.626;12.486;2023-09-19T01:19:55;16.70;99.90
12841;DHT22;6487;48.626;12.486;2023-09-19T01:22:48;16.70;99.90
12841;DHT22;6487;48.626;12.486;2023-09-19T01:26:05;16.60;99.90
12841;DHT22;6487;48.626;12.486;2023-09-19T01:28:53;16.70;99.90
12841;DHT22;6487;48.626;12.486;2023-09-19T01:31:32;16.70;99.90
12841;DHT22;6487;48.626;12.486;2023-09-19T01:34:03;16.70;99.90
12841;DHT22;6487;48.626;12.486;2023-09-19T01:36:33;16.70;99.90
12841;DHT22;6487;48.626;12.486;2023-09-19T01:39:04;16.70;99.90
12841;DHT22;6487;48.626;12.486;2023-09-19T01:41:47;16.70;99.90
12841;DHT22;6487;48.626;12.486;2023-09-19T01:44:25;16.70;99.90
12841;DHT22;6487;48.626;12.486;2023-09-19T01:47:04;16.70;99.90
12841;DHT22;6487;48.626;12.486;2023-09-19T01:49:44;16.70;99.90
12841;DHT22;6487;48.626;12.486;2023-09-19T01:52:22;16.80;99.90
12841;DHT22;6487;48.626;12.486;2023-09-19T01:54:56;16.80;99.90
12841;DHT22;6487;48.626;12.486;2023-09-19T01:57:35;16.80;99.90
12841;DHT22;6487;48.626;12.486;2023-09-19T02:00:12;16.80;99.90
12841;DHT22;6487;48.626;12.486;2023-09-19T02:02:45;16.70;99.90
12841;DHT22;6487;48.626;12.486;2023-09-19T02:05:22;16.70;99.90
12841;DHT22;6487;48.626;12.486;2023-09-19T02:07:51;16.80;99.90
12841;DHT22;6487;48.626;12.486;2023-09-19T02:10:20;16.80;99.90
12841;DHT22;6487;48.626;12.486;2023-09-19T02:12:52;16.80;99.90
12841;DHT22;6487;48.626;12.486;2023-09-19T02:15:20;16.80;99.90
12841;DHT22;6487;48.626;12.486;2023-09-19T02:17:50;16.80;99.90
12841;DHT22;6487;48.626;12.486;2023-09-19T02:20:20;16.80;99.90
12841;DHT22;6487;48.626;12.486;2023-09-19T02:22:48;16.80;99.90
12841;DHT22;6487;48.626;12.486;2023-09-19T02:25:17;16.80;99.90
12841;DHT22;6487;48.626;12.486;2023-09-19T02:27:46;16.80;99.90
12841;DHT22;6487;48.626;12.486;2023-09-19T02:30:15;16.80;99.90
12841;DHT22;6487;48.626;12.486;2023-09-19T02:32:47;16.80;99.90
12841;DHT22;6487;48.626;12.486;2023-09-19T02:35:18;16.80;99.90
12841;DHT22;6487;48.626;12.486;2023-09-19T02:37:47;16.80;99.90
12841;DHT22;6487;48.626;12.486;2023-09-19T02:40:16;16.80;99.90
12841;DHT22;6487;48.626;12.486;2023-09-19T02:42:52;16.80;99.90
12841;DHT22;6487;48.626;12.486;2023-09-19T02:45:21;16.80;99.90
12841;DHT22;6487;48.626;12.486;2023-09-19T02:47:50;16.80;99.90
12841;DHT22;6487;48.626;12.486;2023-09-19T02:50:23;16.80;99.90
12841;DHT22;6487;48.626;12.486;2023-09-19T02:52:55;16.80;99.90
12841;DHT22;6487;48.626;12.486;2023-09-19T02:55:23;16.80;99.90
12841;DHT22;6487;48.626;12.486;2023-09-19T02:57:53;16.80;99.90
12841;DHT22;6487;48.626;12.486;2023-09-19T03:00:22;16.80;99.90
12841;DHT22;6487;48.626;12.486;2023-09-19T03:02:54;16.80;99.90
12841;DHT22;6487;48.626;12.486;2023-09-19T03:05:25;16.70;99.90
12841;DHT22;6487;48.626;12.486;2023-09-19T03:07:53;16.80;99.90
12841;DHT22;6487;48.626;12.486;2023-09-19T03:10:22;16.80;99.90
12841;DHT22;6487;48.626;12.486;2023-09-19T03:12:52;16.80;99.90
12841;DHT22;6487;48.626;12.486;2023-09-19T03:15:20;16.80;99.90
12841;DHT22;6487;48.626;12.486;2023-09-19T03:17:49;16.70;99.90
12841;DHT22;6487;48.626;12.486;2023-09-19T03:20:19;16.70;99.90
12841;DHT22;6487;48.626;12.486;2023-09-19T03:22:49;16.80;99.90
12841;DHT22;6487;48.626;12.486;2023-09-19T03:25:19;16.80;99.90
12841;DHT22;6487;48.626;12.486;2023-09-19T03:27:50;16.80;99.90
12841;DHT22;6487;48.626;12.486;2023-09-19T03:30:24;16.80;99.90
12841;DHT22;6487;48.626;12.486;2023-09-19T03:32:53;16.80;99.90
12841;DHT22;6487;48.626;12.486;2023-09-19T03:35:22;16.80;99.90
12841;DHT22;6487;48.626;12.486;2023-09-19T03:37:52;16.80;99.90
12841;DHT22;6487;48.626;12.486;2023-09-19T03:40:21;16.80;99.90
12841;DHT22;6487;48.626;12.486;2023-09-19T03:42:50;16.80;99.90
12841;DHT22;6487;48.626;12.486;2023-09-19T03:45:18;16.80;99.90
12841;DHT22;6487;48.626;12.486;2023-09-19T03:47:47;16.80;99.90
12841;DHT22;6487;48.626;12.486;2023-09-19T03:50:15;16.80;99.90
12841;DHT22;6487;48.626;12.486;2023-09-19T03:52:44;16.80;99.90
12841;DHT22;6487;48.626;12.486;2023-09-19T03:55:14;16.80;99.90
12841;DHT22;6487;48.626;12.486;2023-09-19T03:57:48;16.80;99.90
12841;DHT22;6487;48.626;12.486;2023-09-19T04:00:17;16.80;99.90
12841;DHT22;6487;48.626;12.486;2023-09-19T04:02:48;16.80;99.90
12841;DHT22;6487;48.626;12.486;2023-09-19T04:05:19;16.80;99.90
12841;DHT22;6487;48.626;12.486;2023-09-19T04:07:48;16.80;99.90
12841;DHT22;6487;48.626;12.486;2023-09-19T04:10:18;16.80;99.90
12841;DHT22;6487;48.626;12.486;2023-09-19T04:12:53;16.80;99.90
12841;DHT22;6487;48.626;12.486;2023-09-19T04:15:23;16.70;99.90
12841;DHT22;6487;48.626;12.486;2023-09-19T04:17:54;16.70;99.90
12841;DHT22;6487;48.626;12.486;2023-09-19T04:20:23;16.70;99.90
12841;DHT22;6487;48.626;12.486;2023-09-19T04:22:52;16.60;99.90
12841;DHT22;6487;48.626;12.486;2023-09-19T04:25:22;16.60;99.90
12841;DHT22;6487;48.626;12.486;2023-09-19T04:27:51;16.60;99.90
12841;DHT22;6487;48.626;12.486;2023-09-19T04:30:20;16.50;99.90
12841;DHT22;6487;48.626;12.486;2023-09-19T04:32:50;16.50;99.90
12841;DHT22;6487;48.626;12.486;2023-09-19T04:35:18;16.50;99.90
12841;DHT22;6487;48.626;12.486;2023-09-19T04:37:47;16.40;99.90
12841;DHT22;6487;48.626;12.486;2023-09-19T04:40:16;16.50;99.90
12841;DHT22;6487;48.626;12.486;2023-09-19T04:42:53;16.40;99.90
12841;DHT22;6487;48.626;12.486;2023-09-19T04:45:23;16.50;99.90
12841;DHT22;6487;48.626;12.486;2023-09-19T04:47:52;16.50;99.90
12841;DHT22;6487;48.626;12.486;2023-09-19T04:50:21;16.40;99.90
12841;DHT22;6487;48.626;12.486;2023-09-19T04:52:50;16.40;99.90
12841;DHT22;6487;48.626;12.486;2023-09-19T04:55:20;16.40;99.90
12841;DHT22;6487;48.626;12.486;2023-09-19T04:57:50;16.40;99.90
12841;DHT22;6487;48.626;12.486;2023-09-19T05:00:21;16.40;99.90
12841;DHT22;6487;48.626;12.486;2023-09-19T05:02:51;16.40;99.90
12841;DHT22;6487;48.626;12.486;2023-09-19T05:05:20;16.40;99.90
12841;DHT22;6487;48.626;12.486;2023-09-19T05:07:49;16.40;99.90
12841;DHT22;6487;48.626;12.486;2023-09-19T05:10:21;16.50;99.90
12841;DHT22;6487;48.626;12.486;2023-09-19T05:12:53;16.40;99.90
12841;DHT22;6487;48.626;12.486;2023-09-19T05:15:21;16.40;99.90
12841;DHT22;6487;48.626;12.486;2023-09-19T05:17:51;16.50;99.90
12841;DHT22;6487;48.626;12.486;2023-09-19T05:20:24;16.40;99.90
12841;DHT22;6487;48.626;12.486;2023-09-19T05:23:00;16.40;99.90
12841;DHT22;6487;48.626;12.486;2023-09-19T05:25:31;16.40;99.90
12841;DHT22;6487;48.626;12.486;2023-09-19T05:28:06;16.40;99.90
12841;DHT22;6487;48.626;12.486;2023-09-19T05:30:39;16.40;99.90
12841;DHT22;6487;48.626;12.486;2023-09-19T05:33:07;16.40;99.90
12841;DHT22;6487;48.626;12.486;2023-09-19T05:35:39;16.50;99.90
12841;DHT22;6487;48.626;12.486;2023-09-19T05:38:08;16.50;99.90
12841;DHT22;6487;48.626;12.486;2023-09-19T05:40:40;16.60;99.90
12841;DHT22;6487;48.626;12.486;2023-09-19T05:43:10;16.60;99.90
12841;DHT22;6487;48.626;12.486;2023-09-19T05:45:40;16.60;99.90
12841;DHT22;6487;48.626;12.486;2023-09-19T05:48:10;16.60;99.90
12841;DHT22;6487;48.626;12.486;2023-09-19T05:50:40;16.50;99.90
12841;DHT22;6487;48.626;12.486;2023-09-19T05:53:09;16.60;99.90
12841;DHT22;6487;48.626;12.486;2023-09-19T05:55:38;16.60;99.90
12841;DHT22;6487;48.626;12.486;2023-09-19T05:58:07;16.60;99.90
12841;DHT22;6487;48.626;12.486;2023-09-19T06:00:38;16.70;99.90
12841;DHT22;6487;48.626;12.486;2023-09-19T06:03:08;16.70;99.90
12841;DHT22;6487;48.626;12.486;2023-09-19T06:05:38;16.70;99.90
12841;DHT22;6487;48.626;12.486;2023-09-19T06:08:08;16.70;99.90
12841;DHT22;6487;48.626;12.486;2023-09-19T06:10:36;16.80;99.90
12841;DHT22;6487;48.626;12.486;2023-09-19T06:13:05;16.80;99.90
12841;DHT22;6487;48.626;12.486;2023-09-19T06:15:38;16.90;99.90
12841;DHT22;6487;48.626;12.486;2023-09-19T06:18:13;16.90;99.90
12841;DHT22;6487;48.626;12.486;2023-09-19T06:20:46;16.90;99.90
12841;DHT22;6487;48.626;12.486;2023-09-19T06:23:15;17.00;99.90
12841;DHT22;6487;48.626;12.486;2023-09-19T06:25:46;17.00;99.90
12841;DHT22;6487;48.626;12.486;2023-09-19T06:28:15;17.00;99.90
12841;DHT22;6487;48.626;12.486;2023-09-19T06:30:48;17.00;99.90
12841;DHT22;6487;48.626;12.486;2023-09-19T06:33:17;17.10;99.90
12841;DHT22;6487;48.626;12.486;2023-09-19T06:35:47;17.10;99.90
12841;DHT22;6487;48.626;12.486;2023-09-19T06:38:15;17.20;99.90
12841;DHT22;6487;48.626;12.486;2023-09-19T06:40:44;17.20;99.90
12841;DHT22;6487;48.626;12.486;2023-09-19T06:43:13;17.20;99.90
12841;DHT22;6487;48.626;12.486;2023-09-19T06:45:45;17.30;99.90
12841;DHT22;6487;48.626;12.486;2023-09-19T06:48:15;17.30;99.90
12841;DHT22;6487;48.626;12.486;2023-09-19T06:50:44;17.30;99.90
12841;DHT22;6487;48.626;12.486;2023-09-19T06:53:13;17.50;99.90
12841;DHT22;6487;48.626;12.486;2023-09-19T06:55:41;17.70;99.90
12841;DHT22;6487;48.626;12.486;2023-09-19T06:58:11;17.80;99.90
12841;DHT22;6487;48.626;12.486;2023-09-19T07:00:39;18.00;99.90
12841;DHT22;6487;48.626;12.486;2023-09-19T07:03:10;18.20;99.90
12841;DHT22;6487;48.626;12.486;2023-09-19T07:05:44;18.40;99.90
12841;DHT22;6487;48.626;12.486;2023-09-19T07:08:15;18.60;99.90
12841;DHT22;6487;48.626;12.486;2023-09-19T07:10:46;18.90;99.90
12841;DHT22;6487;48.626;12.486;2023-09-19T07:13:17;19.10;99.90
12841;DHT22;6487;48.626;12.486;2023-09-19T07:15:45;19.20;99.90
12841;DHT22;6487;48.626;12.486;2023-09-19T07:18:15;19.50;99.90
12841;DHT22;6487;48.626;12.486;2023-09-19T07:20:45;19.50;99.90
12841;DHT22;6487;48.626;12.486;2023-09-19T07:23:17;19.50;99.90
12841;DHT22;6487;48.626;12.486;2023-09-19T07:25:46;19.80;99.90
12841;DHT22;6487;48.626;12.486;2023-09-19T07:28:16;19.90;99.90
12841;DHT22;6487;48.626;12.486;2023-09-19T07:30:44;20.10;99.90
12841;DHT22;6487;48.626;12.486;2023-09-19T07:33:12;20.20;99.90
12841;DHT22;6487;48.626;12.486;2023-09-19T07:35:46;20.20;99.90
12841;DHT22;6487;48.626;12.486;2023-09-19T07:38:15;20.00;99.90
12841;DHT22;6487;48.626;12.486;2023-09-19T07:40:44;20.10;99.90
12841;DHT22;6487;48.626;12.486;2023-09-19T07:43:13;19.90;99.90
12841;DHT22;6487;48.626;12.486;2023-09-19T07:45:41;19.90;99.90
12841;DHT22;6487;48.626;12.486;2023-09-19T07:48:10;19.80;99.90
12841;DHT22;6487;48.626;12.486;2023-09-19T07:50:41;19.80;99.90
12841;DHT22;6487;48.626;12.486;2023-09-19T07:53:13;19.90;99.90
12841;DHT22;6487;48.626;12.486;2023-09-19T07:55:42;20.00;99.90
12841;DHT22;6487;48.626;12.486;2023-09-19T07:58:15;19.90;99.90
12841;DHT22;6487;48.626;12.486;2023-09-19T08:00:43;19.90;99.90
12841;DHT22;6487;48.626;12.486;2023-09-19T08:03:13;19.90;99.90
12841;DHT22;6487;48.626;12.486;2023-09-19T08:05:44;19.90;99.90
12841;DHT22;6487;48.626;12.486;2023-09-19T08:08:17;19.80;99.90
12841;DHT22;6487;48.626;12.486;2023-09-19T08:10:45;20.10;99.90
12841;DHT22;6487;48.626;12.486;2023-09-19T08:13:16;20.00;99.90
12841;DHT22;6487;48.626;12.486;2023-09-19T08:15:45;20.00;99.90
12841;DHT22;6487;48.626;12.486;2023-09-19T08:18:15;20.20;99.90
12841;DHT22;6487;48.626;12.486;2023-09-19T08:20:48;20.20;99.90
12841;DHT22;6487;48.626;12.486;2023-09-19T08:23:19;20.40;99.90
12841;DHT22;6487;48.626;12.486;2023-09-19T08:25:48;20.80;99.90
12841;DHT22;6487;48.626;12.486;2023-09-19T08:28:17;21.00;99.90
12841;DHT22;6487;48.626;12.486;2023-09-19T08:30:51;21.00;99.90
12841;DHT22;6487;48.626;12.486;2023-09-19T08:33:21;21.10;99.90
12841;DHT22;6487;48.626;12.486;2023-09-19T08:35:50;21.20;99.90
12841;DHT22;6487;48.626;12.486;2023-09-19T08:38:20;21.20;99.90
12841;DHT22;6487;48.626;12.486;2023-09-19T08:40:48;20.80;99.90
12841;DHT22;6487;48.626;12.486;2023-09-19T08:43:16;20.70;99.90
12841;DHT22;6487;48.626;12.486;2023-09-19T08:45:45;20.70;99.90
12841;DHT22;6487;48.626;12.486;2023-09-19T08:48:20;20.70;99.90
12841;DHT22;6487;48.626;12.486;2023-09-19T08:50:56;20.70;99.90
12841;DHT22;6487;48.626;12.486;2023-09-19T08:53:36;20.60;99.90
12841;DHT22;6487;48.626;12.486;2023-09-19T08:56:14;20.80;99.90
12841;DHT22;6487;48.626;12.486;2023-09-19T08:58:48;20.90;99.90
12841;DHT22;6487;48.626;12.486;2023-09-19T09:01:20;20.90;99.90
12841;DHT22;6487;48.626;12.486;2023-09-19T09:03:53;20.90;99.90
12841;DHT22;6487;48.626;12.486;2023-09-19T09:06:24;21.20;99.90
12841;DHT22;6487;48.626;12.486;2023-09-19T09:08:56;21.50;99.90
12841;DHT22;6487;48.626;12.486;2023-09-19T09:11:25;21.60;99.90
12841;DHT22;6487;48.626;12.486;2023-09-19T09:13:55;21.60;99.90
12841;DHT22;6487;48.626;12.486;2023-09-19T09:16:24;21.70;99.90
12841;DHT22;6487;48.626;12.486;2023-09-19T09:18:53;21.80;99.90
12841;DHT22;6487;48.626;12.486;2023-09-19T09:21:25;22.00;99.90
12841;DHT22;6487;48.626;12.486;2023-09-19T09:23:55;22.30;99.90
12841;DHT22;6487;48.626;12.486;2023-09-19T09:26:41;22.50;99.90
12841;DHT22;6487;48.626;12.486;2023-09-19T09:29:10;22.80;99.90
12841;DHT22;6487;48.626;12.486;2023-09-19T09:31:41;23.10;99.90
12841;DHT22;6487;48.626;12.486;2023-09-19T09:34:11;23.40;99.90
12841;DHT22;6487;48.626;12.486;2023-09-19T09:36:40;23.50;99.90
12841;DHT22;6487;48.626;12.486;2023-09-19T09:39:10;23.60;99.90
12841;DHT22;6487;48.626;12.486;2023-09-19T09:41:51;23.90;99.90
12841;DHT22;6487;48.626;12.486;2023-09-19T09:44:20;24.00;99.90
12841;DHT22;6487;48.626;12.486;2023-09-19T09:46:48;24.10;99.90
12841;DHT22;6487;48.626;12.486;2023-09-19T09:49:48;24.20;99.90
12841;DHT22;6487;48.626;12.486;2023-09-19T09:52:44;24.50;99.90
12841;DHT22;6487;48.626;12.486;2023-09-19T09:55:15;24.30;99.90
12841;DHT22;6487;48.626;12.486;2023-09-19T09:57:46;24.40;99.90
12841;DHT22;6487;48.626;12.486;2023-09-19T10:00:14;24.20;99.90
12841;DHT22;6487;48.626;12.486;2023-09-19T10:02:47;24.20;99.90
12841;DHT22;6487;48.626;12.486;2023-09-19T10:05:17;24.30;99.90
12841;DHT22;6487;48.626;12.486;2023-09-19T10:07:55;24.30;99.90
12841;DHT22;6487;48.626;12.486;2023-09-19T10:10:33;24.20;99.90
12841;DHT22;6487;48.626;12.486;2023-09-19T10:13:21;24.10;99.90
12841;DHT22;6487;48.626;12.486;2023-09-19T10:15:51;24.10;99.90
12841;DHT22;6487;48.626;12.486;2023-09-19T10:18:23;24.10;99.90
12841;DHT22;6487;48.626;12.486;2023-09-19T10:20:52;23.90;99.90
12841;DHT22;6487;48.626;12.486;2023-09-19T10:23:22;23.90;99.90
12841;DHT22;6487;48.626;12.486;2023-09-19T10:25:54;23.80;99.90
12841;DHT22;6487;48.626;12.486;2023-09-19T10:28:22;23.60;99.90
12841;DHT22;6487;48.626;12.486;2023-09-19T10:30:52;22.70;99.90
12841;DHT22;6487;48.626;12.486;2023-09-19T10:33:22;22.60;99.90
12841;DHT22;6487;48.626;12.486;2023-09-19T10:35:53;22.40;99.90
12841;DHT22;6487;48.626;12.486;2023-09-19T10:38:24;22.00;99.90
12841;DHT22;6487;48.626;12.486;2023-09-19T10:40:57;21.20;99.90
12841;DHT22;6487;48.626;12.486;2023-09-19T10:43:30;20.70;99.90
12841;DHT22;6487;48.626;12.486;2023-09-19T10:46:06;20.70;99.90
12841;DHT22;6487;48.626;12.486;2023-09-19T10:48:38;20.80;99.90
12841;DHT22;6487;48.626;12.486;2023-09-19T10:51:10;20.40;99.90
12841;DHT22;6487;48.626;12.486;2023-09-19T10:53:44;20.40;99.90
12841;DHT22;6487;48.626;12.486;2023-09-19T10:56:24;20.40;99.90
12841;DHT22;6487;48.626;12.486;2023-09-19T10:59:06;20.70;99.90
12841;DHT22;6487;48.626;12.486;2023-09-19T11:01:44;20.80;99.90
12841;DHT22;6487;48.626;12.486;2023-09-19T11:04:23;21.10;99.90
12841;DHT22;6487;48.626;12.486;2023-09-19T11:07:01;21.10;99.90
12841;DHT22;6487;48.626;12.486;2023-09-19T11:09:47;21.30;99.90
12841;DHT22;6487;48.626;12.486;2023-09-19T11:12:49;21.50;99.90
12841;DHT22;6487;48.626;12.486;2023-09-19T11:18:53;21.50;99.90
12841;DHT22;6487;48.626;12.486;2023-09-19T11:21:54;21.20;99.90
12841;DHT22;6487;48.626;12.486;2023-09-19T11:24:31;20.90;99.90
12841;DHT22;6487;48.626;12.486;2023-09-19T11:27:10;21.00;99.90
12841;DHT22;6487;48.626;12.486;2023-09-19T11:29:41;20.90;99.90
12841;DHT22;6487;48.626;12.486;2023-09-19T11:32:10;20.90;99.90
12841;DHT22;6487;48.626;12.486;2023-09-19T11:34:48;21.10;99.90
12841;DHT22;6487;48.626;12.486;2023-09-19T11:40:45;21.00;99.90
12841;DHT22;6487;48.626;12.486;2023-09-19T11:43:29;20.80;99.90
12841;DHT22;6487;48.626;12.486;2023-09-19T11:46:08;20.80;99.90
12841;DHT22;6487;48.626;12.486;2023-09-19T11:48:39;20.70;99.90
12841;DHT22;6487;48.626;12.486;2023-09-19T11:51:16;20.70;99.90
12841;DHT22;6487;48.626;12.486;2023-09-19T11:53:51;20.70;99.90
12841;DHT22;6487;48.626;12.486;2023-09-19T11:56:21;20.70;99.90
12841;DHT22;6487;48.626;12.486;2023-09-19T11:58:55;20.70;99.90
12841;DHT22;6487;48.626;12.486;2023-09-19T12:01:30;20.70;99.90
12841;DHT22;6487;48.626;12.486;2023-09-19T12:04:03;20.70;99.90
12841;DHT22;6487;48.626;12.486;2023-09-19T12:06:32;20.60;99.90
12841;DHT22;6487;48.626;12.486;2023-09-19T12:09:03;20.60;99.90
12841;DHT22;6487;48.626;12.486;2023-09-19T12:11:41;20.70;99.90
12841;DHT22;6487;48.626;12.486;2023-09-19T12:14:11;20.70;99.90
12841;DHT22;6487;48.626;12.486;2023-09-19T12:16:51;20.70;99.90
12841;DHT22;6487;48.626;12.486;2023-09-19T12:19:23;20.80;99.90
12841;DHT22;6487;48.626;12.486;2023-09-19T12:21:56;20.80;99.90
12841;DHT22;6487;48.626;12.486;2023-09-19T12:24:27;20.80;99.90
12841;DHT22;6487;48.626;12.486;2023-09-19T12:27:01;21.00;99.90
12841;DHT22;6487;48.626;12.486;2023-09-19T12:29:42;21.10;99.90
12841;DHT22;6487;48.626;12.486;2023-09-19T12:32:13;21.10;99.90
12841;DHT22;6487;48.626;12.486;2023-09-19T12:34:50;21.10;99.90
12841;DHT22;6487;48.626;12.486;2023-09-19T12:37:20;21.20;99.90
12841;DHT22;6487;48.626;12.486;2023-09-19T12:39:51;21.00;99.90
12841;DHT22;6487;48.626;12.486;2023-09-19T12:42:22;21.40;99.90
12841;DHT22;6487;48.626;12.486;2023-09-19T12:44:52;21.80;99.90
12841;DHT22;6487;48.626;12.486;2023-09-19T12:47:25;22.10;99.90
12841;DHT22;6487;48.626;12.486;2023-09-19T12:50:07;22.40;99.90
12841;DHT22;6487;48.626;12.486;2023-09-19T12:52:42;22.50;99.90
12841;DHT22;6487;48.626;12.486;2023-09-19T12:55:24;22.60;99.90
12841;DHT22;6487;48.626;12.486;2023-09-19T13:00:46;23.00;99.90
12841;DHT22;6487;48.626;12.486;2023-09-19T13:03:26;23.00;99.90
12841;DHT22;6487;48.626;12.486;2023-09-19T13:05:59;23.20;99.90
12841;DHT22;6487;48.626;12.486;2023-09-19T13:08:30;23.40;99.90
12841;DHT22;6487;48.626;12.486;2023-09-19T13:11:08;23.30;99.90
12841;DHT22;6487;48.626;12.486;2023-09-19T13:13:46;23.50;99.90
12841;DHT22;6487;48.626;12.486;2023-09-19T13:16:17;23.80;99.90
12841;DHT22;6487;48.626;12.486;2023-09-19T13:18:52;23.80;99.90
12841;DHT22;6487;48.626;12.486;2023-09-19T13:21:31;23.50;99.90
12841;DHT22;6487;48.626;12.486;2023-09-19T13:24:20;23.60;99.90
12841;DHT22;6487;48.626;12.486;2023-09-19T13:26:52;23.70;99.90
12841;DHT22;6487;48.626;12.486;2023-09-19T13:29:21;23.70;99.90
12841;DHT22;6487;48.626;12.486;2023-09-19T13:31:51;23.90;99.90
12841;DHT22;6487;48.626;12.486;2023-09-19T13:34:22;24.00;99.90
12841;DHT22;6487;48.626;12.486;2023-09-19T13:36:51;23.80;99.90
12841;DHT22;6487;48.626;12.486;2023-09-19T13:39:19;23.80;99.90
12841;DHT22;6487;48.626;12.486;2023-09-19T13:41:51;23.80;99.90
12841;DHT22;6487;48.626;12.486;2023-09-19T13:44:20;23.80;99.90
12841;DHT22;6487;48.626;12.486;2023-09-19T13:46:48;23.80;99.90
12841;DHT22;6487;48.626;12.486;2023-09-19T13:49:18;23.70;99.90
12841;DHT22;6487;48.626;12.486;2023-09-19T13:51:50;23.80;99.90
12841;DHT22;6487;48.626;12.486;2023-09-19T13:54:18;23.80;99.90
12841;DHT22;6487;48.626;12.486;2023-09-19T13:56:47;23.90;99.90
12841;DHT22;6487;48.626;12.486;2023-09-19T13:59:16;23.90;99.90
12841;DHT22;6487;48.626;12.486;2023-09-19T14:01:44;24.00;99.90
12841;DHT22;6487;48.626;12.486;2023-09-19T14:04:13;24.00;99.90
12841;DHT22;6487;48.626;12.486;2023-09-19T14:06:42;24.20;99.90
12841;DHT22;6487;48.626;12.486;2023-09-19T14:09:13;24.20;99.90
12841;DHT22;6487;48.626;12.486;2023-09-19T14:11:46;24.20;99.90
12841;DHT22;6487;48.626;12.486;2023-09-19T14:14:15;24.30;99.90
12841;DHT22;6487;48.626;12.486;2023-09-19T14:16:46;24.40;99.90
12841;DHT22;6487;48.626;12.486;2023-09-19T14:19:15;24.50;99.90
12841;DHT22;6487;48.626;12.486;2023-09-19T14:21:43;24.50;99.90
12841;DHT22;6487;48.626;12.486;2023-09-19T14:24:17;24.60;99.90
12841;DHT22;6487;48.626;12.486;2023-09-19T14:26:46;24.60;99.90
12841;DHT22;6487;48.626;12.486;2023-09-19T14:29:14;24.60;99.90
12841;DHT22;6487;48.626;12.486;2023-09-19T14:31:43;24.60;99.80
12841;DHT22;6487;48.626;12.486;2023-09-19T14:34:11;24.60;99.90
12841;DHT22;6487;48.626;12.486;2023-09-19T14:36:41;24.60;99.90
12841;DHT22;6487;48.626;12.486;2023-09-19T14:39:10;24.60;99.90
12841;DHT22;6487;48.626;12.486;2023-09-19T14:41:42;24.60;99.90
12841;DHT22;6487;48.626;12.486;2023-09-19T14:44:11;24.50;99.80
12841;DHT22;6487;48.626;12.486;2023-09-19T14:46:39;24.60;99.90
12841;DHT22;6487;48.626;12.486;2023-09-19T14:49:08;24.60;99.90
12841;DHT22;6487;48.626;12.486;2023-09-19T14:51:39;24.50;99.90
12841;DHT22;6487;48.626;12.486;2023-09-19T14:54:08;24.60;99.90
12841;DHT22;6487;48.626;12.486;2023-09-19T14:56:37;24.60;99.90
12841;DHT22;6487;48.626;12.486;2023-09-19T14:59:07;24.60;99.90
12841;DHT22;6487;48.626;12.486;2023-09-19T15:01:37;24.60;99.90
12841;DHT22;6487;48.626;12.486;2023-09-19T15:04:06;24.60;99.90
12841;DHT22;6487;48.626;12.486;2023-09-19T15:06:35;24.50;99.70
12841;DHT22;6487;48.626;12.486;2023-09-19T15:09:04;24.50;99.90
12841;DHT22;6487;48.626;12.486;2023-09-19T15:11:33;24.20;99.90
12841;DHT22;6487;48.626;12.486;2023-09-19T15:14:01;24.00;99.90
12841;DHT22;6487;48.626;12.486;2023-09-19T15:16:32;23.90;99.90
12841;DHT22;6487;48.626;12.486;2023-09-19T15:19:00;24.00;99.90
12841;DHT22;6487;48.626;12.486;2023-09-19T15:21:29;23.90;99.90
12841;DHT22;6487;48.626;12.486;2023-09-19T15:23:57;23.90;99.90
12841;DHT22;6487;48.626;12.486;2023-09-19T15:26:26;23.80;99.90
12841;DHT22;6487;48.626;12.486;2023-09-19T15:28:55;23.60;99.90
12841;DHT22;6487;48.626;12.486;2023-09-19T15:31:23;23.60;99.90
12841;DHT22;6487;48.626;12.486;2023-09-19T15:33:52;23.50;99.90
12841;DHT22;6487;48.626;12.486;2023-09-19T15:36:20;23.40;99.90
12841;DHT22;6487;48.626;12.486;2023-09-19T15:38:59;23.30;99.90
12841;DHT22;6487;48.626;12.486;2023-09-19T15:41:31;23.20;99.90
12841;DHT22;6487;48.626;12.486;2023-09-19T15:44:01;23.10;99.90
12841;DHT22;6487;48.626;12.486;2023-09-19T15:46:32;23.00;99.90
12841;DHT22;6487;48.626;12.486;2023-09-19T15:49:03;22.90;99.90
12841;DHT22;6487;48.626;12.486;2023-09-19T15:51:33;22.80;99.90
12841;DHT22;6487;48.626;12.486;2023-09-19T15:54:08;22.70;99.90
12841;DHT22;6487;48.626;12.486;2023-09-19T15:56:39;22.70;99.90
12841;DHT22;6487;48.626;12.486;2023-09-19T15:59:09;22.50;99.90
12841;DHT22;6487;48.626;12.486;2023-09-19T16:01:39;22.40;99.90
12841;DHT22;6487;48.626;12.486;2023-09-19T16:04:12;22.30;99.90
12841;DHT22;6487;48.626;12.486;2023-09-19T16:06:41;22.40;99.90
12841;DHT22;6487;48.626;12.486;2023-09-19T16:09:10;22.20;99.90